Time;durP1;ratioP1;P1;durP2;ratioP2;P2;SDS_P1;SDS_P2;PMS_P1;PMS_P2;Temp;Humidity;BMP_temperature;BMP_pressure;BME280_temperature;BME280_humidity;BME280_pressure;Samples;Min_cycle;Max_cycle;Signal;HPM_P1;HPM_P2
2022/12/18 00:00:07;;;;;;;76.38;29.67;;;;;;;-1.17;100.00;97460.53;4959034;28;20086;-48
2022/12/18 00:02:35;;;;;;;67.18;28.02;;;;;;;-1.06;100.00;97464.47;4955267;28;20102;-46
2022/12/18 00:05:04;;;;;;;62.17;26.33;;;;;;;-0.92;100.00;97466.63;4956127;28;20441;-47
2022/12/18 00:07:33;;;;;;;74.15;31.50;;;;;;;-1.08;100.00;97462.81;4954748;28;20558;-45
2022/12/18 00:10:01;;;;;;;62.28;26.25;;;;;;;-1.30;100.00;97467.84;4954469;28;20165;-51
2022/12/18 00:12:29;;;;;;;44.15;20.17;;;;;;;-1.02;100.00;97473.00;4954365;28;20474;-47
2022/12/18 00:14:57;;;;;;;61.55;23.83;;;;;;;-1.09;100.00;97476.69;4956338;28;20141;-48
2022/12/18 00:17:27;;;;;;;70.75;27.65;;;;;;;-0.52;100.00;97473.94;4953714;28;20162;-43
2022/12/18 00:19:55;;;;;;;61.73;25.37;;;;;;;-1.00;100.00;97477.25;4952057;28;20146;-45
2022/12/18 00:22:23;;;;;;;72.13;30.33;;;;;;;-1.01;100.00;97474.69;4952633;28;20638;-42
2022/12/18 00:24:52;;;;;;;63.38;26.45;;;;;;;-1.24;100.00;97472.81;4949670;28;20134;-46
2022/12/18 00:27:20;;;;;;;60.15;24.90;;;;;;;-1.30;100.00;97470.44;4950965;28;20613;-46
2022/12/18 00:29:49;;;;;;;60.72;26.80;;;;;;;-1.64;100.00;97478.34;4956721;28;20149;-42
2022/12/18 00:32:17;;;;;;;52.75;23.65;;;;;;;-1.57;100.00;97487.63;4951888;28;20138;-45
2022/12/18 00:34:47;;;;;;;59.95;24.88;;;;;;;-1.21;100.00;97480.47;4953799;28;20082;-45
2022/12/18 00:37:15;;;;;;;66.50;29.40;;;;;;;-1.61;100.00;97483.44;4955343;28;20090;-43
2022/12/18 00:39:49;;;;;;;66.63;27.80;;;;;;;-1.59;100.00;97492.81;4952956;28;20726;-47
2022/12/18 00:45:03;;;;;;;62.22;27.50;;;;;;;-1.48;100.00;97497.69;4954555;28;20488;-47
2022/12/18 00:47:39;;;;;;;71.18;29.70;;;;;;;-1.54;100.00;97490.97;4953918;28;20087;-47
2022/12/18 00:50:10;;;;;;;48.00;21.85;;;;;;;-1.29;100.00;97478.13;4957712;28;20082;-43
2022/12/18 00:52:38;;;;;;;24.80;14.13;;;;;;;-1.72;100.00;97494.06;4956020;28;20090;-48
2022/12/18 00:55:07;;;;;;;67.75;27.92;;;;;;;-1.64;100.00;97497.28;4957278;28;20232;-42
2022/12/18 00:57:36;;;;;;;57.63;24.40;;;;;;;-1.67;100.00;97513.75;4953012;28;20134;-45
2022/12/18 01:00:05;;;;;;;54.70;21.83;;;;;;;-1.40;100.00;97513.00;4956378;28;20145;-46
2022/12/18 01:02:34;;;;;;;64.80;27.58;;;;;;;-0.88;100.00;97513.97;4952535;28;20169;-44
2022/12/18 01:05:03;;;;;;;62.03;26.08;;;;;;;-1.12;100.00;97508.66;4956279;28;20475;-41
2022/12/18 01:07:32;;;;;;;47.90;19.92;;;;;;;-1.34;100.00;97510.19;4952893;28;20521;-42
2022/12/18 01:10:00;;;;;;;37.33;17.03;;;;;;;-1.68;100.00;97513.78;4956871;28;20158;-42
2022/12/18 01:12:29;;;;;;;49.65;20.45;;;;;;;-1.28;100.00;97510.88;4951264;28;20585;-42
2022/12/18 01:14:57;;;;;;;65.00;27.33;;;;;;;-1.23;100.00;97508.16;4950950;28;20105;-49
2022/12/18 01:17:25;;;;;;;59.72;25.38;;;;;;;-0.74;100.00;97496.25;4950472;28;20154;-48
2022/12/18 01:19:54;;;;;;;55.30;22.63;;;;;;;-0.83;100.00;97497.38;4953889;28;20082;-47
2022/12/18 01:22:22;;;;;;;56.17;23.67;;;;;;;-0.66;100.00;97512.38;4953188;28;20155;-46
2022/12/18 01:24:51;;;;;;;60.00;25.08;;;;;;;-1.28;100.00;97522.97;4951322;28;20559;-45
2022/12/18 01:27:20;;;;;;;60.90;24.00;;;;;;;-0.64;100.00;97514.94;4951541;28;20520;-45
2022/12/18 01:29:48;;;;;;;67.82;26.05;;;;;;;-0.51;100.00;97521.41;4951258;28;20891;-41
2022/12/18 01:32:16;;;;;;;65.43;26.38;;;;;;;-0.53;100.00;97521.44;4955570;28;20082;-45
2022/12/18 01:34:45;;;;;;;64.28;27.27;;;;;;;-0.77;100.00;97533.44;4950301;28;20145;-41
2022/12/18 01:37:13;;;;;;;71.68;27.60;;;;;;;-1.08;100.00;97541.31;4951530;28;20398;-44
2022/12/18 01:39:41;;;;;;;61.38;25.20;;;;;;;-0.71;100.00;97535.00;4949125;28;20150;-45
2022/12/18 01:42:14;;;;;;;56.65;24.08;;;;;;;-0.46;100.00;97548.00;4952477;28;20122;-45
2022/12/18 01:45:02;;;;;;;68.43;26.30;;;;;;;-0.48;100.00;97552.41;4953179;28;20070;-48
2022/12/18 01:47:36;;;;;;;62.22;25.27;;;;;;;-0.47;100.00;97553.25;4951477;28;20867;-44
2022/12/18 01:50:09;;;;;;;72.95;27.15;;;;;;;-0.17;100.00;97561.72;4947371;28;20125;-43
2022/12/18 01:52:38;;;;;;;72.65;28.35;;;;;;;0.01;100.00;97557.69;4948800;28;20523;-44
2022/12/18 01:55:08;;;;;;;67.15;27.17;;;;;;;-0.51;100.00;97565.47;4951814;28;20082;-50
2022/12/18 01:57:38;;;;;;;59.35;26.70;;;;;;;-0.77;100.00;97563.69;4952144;28;20137;-45
2022/12/18 02:00:09;;;;;;;71.30;28.70;;;;;;;-0.60;100.00;97556.22;4952477;28;20232;-42
2022/12/18 02:02:38;;;;;;;58.13;22.75;;;;;;;-0.49;100.00;97555.88;4951251;28;20075;-47
2022/12/18 02:05:08;;;;;;;70.72;28.70;;;;;;;-0.56;100.00;97547.44;4954074;28;20774;-42
2022/12/18 02:07:44;;;;;;;64.30;27.85;;;;;;;-0.37;100.00;97545.13;4949817;28;20147;-47
2022/12/18 02:10:16;;;;;;;63.00;23.52;;;;;;;-0.36;100.00;97533.00;4952764;28;20122;-46
2022/12/18 02:12:50;;;;;;;71.22;29.42;;;;;;;-0.28;100.00;97541.34;4950875;28;20129;-44
2022/12/18 02:15:23;;;;;;;63.13;26.27;;;;;;;-0.33;100.00;97538.94;4951796;28;20074;-45
2022/12/18 02:17:56;;;;;;;67.88;27.75;;;;;;;-0.38;100.00;97524.44;4951189;28;20129;-48
2022/12/18 02:20:29;;;;;;;61.83;24.40;;;;;;;-0.36;100.00;97528.66;4950849;28;20186;-43
2022/12/18 02:23:07;;;;;;;64.93;25.73;;;;;;;-0.47;100.00;97520.41;4952985;28;20117;-42
2022/12/18 02:25:57;;;;;;;66.13;26.92;;;;;;;-0.27;100.00;97518.00;4950199;28;20573;-46
2022/12/18 02:28:29;;;;;;;69.20;26.17;;;;;;;-0.54;100.00;97534.47;4950930;28;20450;-44
2022/12/18 02:30:59;;;;;;;71.20;26.02;;;;;;;-0.33;100.00;97531.16;4951124;28;20761;-44
2022/12/18 02:33:28;;;;;;;72.50;29.33;;;;;;;-0.05;100.00;97527.63;4951628;28;20071;-48
2022/12/18 02:35:58;;;;;;;60.65;24.73;;;;;;;-0.41;100.00;97528.00;4947098;28;20159;-44
2022/12/18 02:38:26;;;;;;;65.90;26.80;;;;;;;-0.34;100.00;97528.63;4946646;28;20146;-49
2022/12/18 02:40:57;;;;;;;56.55;24.95;;;;;;;-0.52;100.00;97532.66;4950990;28;20137;-43
2022/12/18 02:43:25;;;;;;;62.97;26.35;;;;;;;-0.15;100.00;97523.66;4951797;28;20629;-46
2022/12/18 02:45:56;;;;;;;63.50;27.38;;;;;;;-0.34;100.00;97529.47;4948699;28;20089;-43
2022/12/18 02:48:27;;;;;;;56.47;24.35;;;;;;;-0.30;100.00;97531.06;4950823;28;20559;-46
2022/12/18 02:51:01;;;;;;;60.90;26.63;;;;;;;-0.53;100.00;97529.22;4950068;28;20090;-45
2022/12/18 02:53:34;;;;;;;58.83;25.50;;;;;;;-0.41;100.00;97533.16;4948212;28;20126;-46
2022/12/18 02:56:08;;;;;;;32.70;15.30;;;;;;;-0.60;100.00;97529.47;4953785;28;20117;-46
2022/12/18 02:58:42;;;;;;;55.85;22.58;;;;;;;-0.16;100.00;97524.56;4944844;28;20126;-45
2022/12/18 03:01:13;;;;;;;44.75;20.58;;;;;;;-0.16;100.00;97527.16;4954632;28;20541;-50
2022/12/18 03:03:44;;;;;;;54.53;24.25;;;;;;;0.40;100.00;97527.72;4951730;28;20089;-45
2022/12/18 03:06:18;;;;;;;54.55;24.55;;;;;;;-0.35;100.00;97535.53;4950835;28;20113;-44
2022/12/18 03:08:49;;;;;;;43.65;21.70;;;;;;;-0.48;100.00;97529.09;4949578;28;20126;-47
2022/12/18 03:12:22;;;;;;;48.42;20.13;;;;;;;-0.44;100.00;97522.91;4949674;28;20134;-51
2022/12/18 03:14:08;;;;;;;63.28;28.58;;;;;;;-0.83;100.00;97517.25;4949750;28;20079;-43
2022/12/18 03:16:37;;;;;;;61.58;26.80;;;;;;;-0.58;100.00;97520.78;4950515;28;20130;-46
2022/12/18 03:19:11;;;;;;;43.28;19.13;;;;;;;-0.58;100.00;97518.19;4953898;28;20078;-45
2022/12/18 03:21:43;;;;;;;39.15;17.63;;;;;;;-0.55;100.00;97504.25;4949151;28;20440;-44
2022/12/18 03:24:12;;;;;;;61.63;25.08;;;;;;;-0.22;100.00;97517.00;4950144;28;20142;-46
2022/12/18 03:26:44;;;;;;;43.10;18.33;;;;;;;-0.58;100.00;97517.34;4949377;28;20087;-42
2022/12/18 03:29:18;;;;;;;56.90;24.02;;;;;;;-0.15;100.00;97518.47;4953763;28;20426;-42
2022/12/18 03:31:49;;;;;;;43.60;20.60;;;;;;;-0.30;100.00;97520.69;4953730;28;20485;-45
2022/12/18 03:34:21;;;;;;;52.63;23.25;;;;;;;-0.31;100.00;97529.38;4953850;28;20078;-42
2022/12/18 03:36:49;;;;;;;52.08;23.05;;;;;;;-0.15;100.00;97526.25;4951516;28;20113;-44
2022/12/18 03:39:17;;;;;;;45.58;18.98;;;;;;;-0.51;100.00;97527.44;4951185;28;20079;-46
2022/12/18 03:41:52;;;;;;;25.90;13.35;;;;;;;-0.80;100.00;97527.53;4948510;28;21322;-44
2022/12/18 03:44:27;;;;;;;29.27;15.52;;;;;;;-0.71;100.00;97522.06;4948576;28;20078;-43
2022/12/18 03:47:00;;;;;;;40.70;19.75;;;;;;;-0.60;100.00;97530.31;4951294;28;20495;-45
2022/12/18 03:49:34;;;;;;;55.67;21.77;;;;;;;-0.18;100.00;97534.97;4947528;28;20075;-49
2022/12/18 03:52:06;;;;;;;47.03;19.70;;;;;;;-0.21;100.00;97527.28;4953258;28;20078;-46
2022/12/18 03:54:35;;;;;;;47.63;20.20;;;;;;;0.03;100.00;97519.56;4954964;28;20134;-46
2022/12/18 03:57:08;;;;;;;54.30;23.80;;;;;;;-0.36;100.00;97520.06;4950277;28;20139;-48
2022/12/18 03:59:37;;;;;;;47.58;21.55;;;;;;;-0.18;100.00;97514.22;4949919;28;20090;-46
2022/12/18 04:02:07;;;;;;;42.95;18.98;;;;;;;-0.13;100.00;97517.53;4951897;28;20082;-50
2022/12/18 04:04:37;;;;;;;31.23;15.82;;;;;;;-0.31;100.00;97510.34;4952627;28;20155;-47
2022/12/18 04:07:05;;;;;;;49.33;20.55;;;;;;;0.11;100.00;97518.41;4960170;28;20074;-45
2022/12/18 04:09:35;;;;;;;45.55;21.00;;;;;;;-0.13;100.00;97524.47;4964124;28;20079;-44
2022/12/18 04:12:04;;;;;;;50.88;22.58;;;;;;;-0.40;100.00;97524.50;4960788;28;20082;-47
2022/12/18 04:14:35;;;;;;;54.40;24.75;;;;;;;-0.56;100.00;97539.69;4954847;28;20126;-45
2022/12/18 04:17:03;;;;;;;;;;;;;;;-0.44;100.00;97541.03;4956800;28;20162;-43
2022/12/18 04:19:31;;;;;;;33.15;16.55;;;;;;;-0.56;100.00;97542.28;4955836;28;20017;-42
2022/12/18 04:21:59;;;;;;;43.30;19.90;;;;;;;-0.37;100.00;97537.34;4955537;28;20142;-44
2022/12/18 04:24:28;;;;;;;49.67;22.15;;;;;;;-0.52;100.00;97517.09;4953483;28;21635;-43
2022/12/18 04:26:56;;;;;;;47.22;22.45;;;;;;;-0.86;100.00;97509.59;4952278;28;20146;-43
2022/12/18 04:29:26;;;;;;;58.25;27.77;;;;;;;-0.61;100.00;97527.78;4951941;28;20574;-40
2022/12/18 04:31:54;;;;;;;48.92;22.05;;;;;;;-0.22;100.00;97524.75;4957000;28;20164;-52
2022/12/18 04:34:22;;;;;;;52.53;24.40;;;;;;;0.12;100.00;97529.63;4956164;28;20145;-43
2022/12/18 04:36:50;;;;;;;54.22;23.85;;;;;;;0.37;100.00;97530.44;4951239;28;20142;-43
2022/12/18 04:39:19;;;;;;;43.70;19.30;;;;;;;-0.13;100.00;97540.03;4951336;28;20141;-47
2022/12/18 04:41:47;;;;;;;48.80;22.70;;;;;;;0.02;100.00;97555.03;4953134;28;20083;-43
2022/12/18 04:44:15;;;;;;;51.65;21.33;;;;;;;0.02;100.00;97565.41;4953003;28;20146;-42
2022/12/18 04:46:45;;;;;;;45.83;22.30;;;;;;;0.44;100.00;97562.19;4953105;28;20162;-47
2022/12/18 04:49:14;;;;;;;43.40;20.38;;;;;;;-0.20;100.00;97552.34;4954448;28;20074;-44
2022/12/18 04:51:42;;;;;;;46.67;20.83;;;;;;;0.04;100.00;97539.44;4954605;28;20138;-49
2022/12/18 04:54:10;;;;;;;43.35;17.70;;;;;;;0.04;100.00;97545.47;4955027;28;20574;-45
2022/12/18 04:56:39;;;;;;;48.20;19.77;;;;;;;-0.20;100.00;97548.91;4953864;28;20086;-46
2022/12/18 04:59:07;;;;;;;45.78;20.90;;;;;;;0.34;100.00;97555.66;4954614;28;20150;-50
2022/12/18 05:01:36;;;;;;;46.70;20.15;;;;;;;0.03;100.00;97558.47;4956972;28;20145;-45
2022/12/18 05:04:06;;;;;;;46.30;21.98;;;;;;;0.30;100.00;97560.09;4950118;28;20055;-45
2022/12/18 05:06:34;;;;;;;45.30;21.48;;;;;;;0.13;100.00;97560.69;4952826;28;20084;-46
2022/12/18 05:09:02;;;;;;;47.75;21.73;;;;;;;0.44;100.00;97557.84;4956284;28;20089;-42
2022/12/18 05:11:31;;;;;;;46.42;20.77;;;;;;;0.51;100.00;97555.88;4951891;28;20165;-43
2022/12/18 05:13:59;;;;;;;45.25;19.42;;;;;;;0.67;100.00;97563.97;4955047;28;20740;-44
2022/12/18 05:16:27;;;;;;;43.83;20.00;;;;;;;0.85;100.00;97563.28;4954420;28;20090;-44
2022/12/18 05:18:56;;;;;;;53.03;22.58;;;;;;;0.80;100.00;97559.16;4949676;28;20137;-50
2022/12/18 05:21:25;;;;;;;43.95;18.35;;;;;;;0.50;100.00;97564.56;4950117;28;20095;-48
2022/12/18 05:23:54;;;;;;;57.37;23.93;;;;;;;1.16;100.00;97565.53;4953136;28;20094;-51
2022/12/18 05:26:22;;;;;;;54.38;23.75;;;;;;;0.91;100.00;97563.03;4952705;28;20919;-50
2022/12/18 05:28:50;;;;;;;52.63;22.50;;;;;;;0.45;100.00;97571.69;4952097;28;20082;-47
2022/12/18 05:31:18;;;;;;;54.85;24.00;;;;;;;0.26;100.00;97570.66;4958110;28;20086;-46
2022/12/18 05:33:47;;;;;;;42.72;19.75;;;;;;;0.20;100.00;97575.13;4951372;28;20142;-47
2022/12/18 05:36:15;;;;;;;55.25;22.90;;;;;;;0.42;100.00;97567.47;4953625;28;20157;-46
2022/12/18 05:38:45;;;;;;;51.88;24.55;;;;;;;0.13;100.00;97578.00;4950670;28;20142;-43
2022/12/18 05:41:13;;;;;;;57.83;25.63;;;;;;;-0.18;100.00;97583.38;4955852;28;20142;-42
2022/12/18 05:43:41;;;;;;;53.00;22.90;;;;;;;-0.06;100.00;97586.41;4952332;28;20741;-43
2022/12/18 05:46:13;;;;;;;56.13;22.20;;;;;;;0.31;100.00;97573.91;4954562;28;20089;-44
2022/12/18 05:48:42;;;;;;;55.58;24.77;;;;;;;0.02;100.00;97575.78;4950794;28;20129;-45
2022/12/18 05:51:12;;;;;;;45.25;19.00;;;;;;;0.17;100.00;97583.06;4954908;28;20146;-48
2022/12/18 05:53:40;;;;;;;47.85;22.25;;;;;;;0.52;100.00;97586.16;4951986;28;20156;-44
2022/12/18 05:56:13;;;;;;;58.58;23.98;;;;;;;0.75;100.00;97587.88;4952809;28;20093;-45
2022/12/18 05:58:41;;;;;;;47.10;21.05;;;;;;;0.15;100.00;97584.84;4950943;28;20138;-42
2022/12/18 06:01:12;;;;;;;54.63;23.08;;;;;;;0.20;100.00;97588.09;4952955;28;20117;-44
2022/12/18 06:03:40;;;;;;;;;;;;;;;0.34;100.00;97597.16;4954927;28;20541;-48
2022/12/18 06:06:16;;;;;;;59.33;23.48;;;;;;;0.42;100.00;97593.41;4951779;28;19966;-42
2022/12/18 06:08:44;;;;;;;54.28;23.13;;;;;;;0.32;100.00;97598.97;4950254;28;20499;-46
2022/12/18 06:11:18;;;;;;;56.75;23.95;;;;;;;0.51;100.00;97597.41;4951799;28;20146;-41
2022/12/18 06:13:47;;;;;;;55.50;24.40;;;;;;;0.22;100.00;97598.44;4950376;28;20144;-41
2022/12/18 06:16:15;;;;;;;55.22;23.33;;;;;;;0.39;100.00;97600.44;4950066;28;20137;-41
2022/12/18 06:18:44;;;;;;;51.75;20.20;;;;;;;-0.16;100.00;97607.53;4951273;28;20079;-47
2022/12/18 06:21:12;;;;;;;48.03;21.63;;;;;;;-0.26;100.00;97594.00;4952433;28;20085;-43
2022/12/18 06:23:41;;;;;;;44.65;20.48;;;;;;;-0.26;100.00;97597.44;4949921;28;20070;-49
2022/12/18 06:26:11;;;;;;;50.75;24.23;;;;;;;-0.06;100.00;97596.78;4953081;28;20137;-46
2022/12/18 06:28:41;;;;;;;54.88;23.30;;;;;;;-0.21;100.00;97599.03;4953907;28;20070;-45
2022/12/18 06:31:10;;;;;;;56.83;24.73;;;;;;;-0.38;100.00;97603.03;4951882;28;20133;-44
2022/12/18 06:33:39;;;;;;;54.70;21.45;;;;;;;0.19;100.00;97595.94;4953182;28;20134;-44
2022/12/18 06:36:10;;;;;;;59.90;23.23;;;;;;;0.29;100.00;97606.84;4952530;28;20081;-45
2022/12/18 06:38:40;;;;;;;49.78;19.98;;;;;;;0.13;100.00;97609.13;4951760;28;20086;-44
2022/12/18 06:41:10;;;;;;;57.70;22.85;;;;;;;-0.23;100.00;97613.81;4951246;28;20161;-45
2022/12/18 06:43:38;;;;;;;51.83;21.88;;;;;;;0.05;100.00;97614.56;4949911;28;20142;-46
2022/12/18 06:46:09;;;;;;;55.67;22.55;;;;;;;-0.14;100.00;97616.91;4949249;28;20142;-49
2022/12/18 06:48:37;;;;;;;52.20;22.85;;;;;;;0.15;100.00;97625.50;4951631;28;20228;-50
2022/12/18 06:51:06;;;;;;;40.22;18.13;;;;;;;-0.29;100.00;97636.41;4951625;28;20165;-48
2022/12/18 06:53:34;;;;;;;38.47;17.08;;;;;;;-0.73;100.00;97641.22;4956275;28;20082;-46
2022/12/18 06:56:04;;;;;;;59.35;25.65;;;;;;;-0.65;100.00;97647.94;4951132;28;20608;-48
2022/12/18 06:58:38;;;;;;;42.10;20.00;;;;;;;-0.33;100.00;97633.97;4967578;28;20075;-42
2022/12/18 07:01:09;;;;;;;55.33;23.52;;;;;;;-0.06;100.00;97629.66;4950116;28;20126;-46
2022/12/18 07:03:38;;;;;;;44.42;19.52;;;;;;;-0.36;100.00;97632.31;4950132;28;20129;-51
2022/12/18 07:06:14;;;;;;;49.77;23.63;;;;;;;-0.15;100.00;97640.31;4949759;28;20125;-47
2022/12/18 07:08:43;;;;;;;26.70;14.52;;;;;;;-0.40;100.00;97648.88;4950906;28;20160;-46
2022/12/18 07:11:11;;;;;;;48.17;22.58;;;;;;;-0.66;100.00;97659.19;4952678;28;20078;-46
2022/12/18 07:13:39;;;;;;;50.65;22.30;;;;;;;-0.26;100.00;97653.63;4950945;28;20082;-46
2022/12/18 07:16:11;;;;;;;41.55;18.60;;;;;;;-0.51;100.00;97663.91;4952315;28;20174;-42
2022/12/18 07:18:49;;;;;;;52.22;24.38;;;;;;;-0.50;100.00;97668.19;4951035;28;20620;-48
2022/12/18 07:21:19;;;;;;;31.70;14.95;;;;;;;-0.65;100.00;97668.66;4952173;28;20894;-44
2022/12/18 07:23:48;;;;;;;51.25;23.58;;;;;;;-0.26;100.00;97669.19;4948771;28;20142;-44
2022/12/18 07:26:18;;;;;;;32.42;16.05;;;;;;;-0.68;100.00;97681.72;4950393;28;20165;-45
2022/12/18 07:28:47;;;;;;;37.35;16.33;;;;;;;-0.23;100.00;97670.81;4952739;28;20126;-48
2022/12/18 07:31:17;;;;;;;50.05;21.25;;;;;;;-0.26;100.00;97680.38;4952861;28;20088;-48
2022/12/18 07:33:46;;;;;;;37.40;17.13;;;;;;;0.01;100.00;97680.41;4948878;28;20543;-49
2022/12/18 07:36:15;;;;;;;39.13;18.63;;;;;;;-0.39;100.00;97689.44;4953775;28;20097;-44
2022/12/18 07:38:43;;;;;;;36.85;15.75;;;;;;;-0.38;100.00;97690.28;4951558;28;20138;-41
2022/12/18 07:41:13;;;;;;;39.63;19.00;;;;;;;-0.29;100.00;97677.88;4954091;28;20226;-42
2022/12/18 07:43:42;;;;;;;39.95;20.05;;;;;;;-1.03;100.00;97678.41;4953670;28;20150;-44
2022/12/18 07:46:13;;;;;;;55.40;24.23;;;;;;;-0.61;100.00;97667.69;4955145;28;20070;-47
2022/12/18 07:48:43;;;;;;;;;;;;;;;-0.66;100.00;97674.72;4958133;28;20129;-44
2022/12/18 07:51:17;;;;;;;31.40;14.48;;;;;;;-0.34;100.00;97681.53;4952456;28;20013;-44
2022/12/18 07:53:46;;;;;;;47.10;20.67;;;;;;;-0.50;100.00;97678.56;4953896;28;20054;-42
2022/12/18 07:56:20;;;;;;;45.10;19.00;;;;;;;-0.56;100.00;97679.56;4953592;28;20197;-45
2022/12/18 07:58:58;;;;;;;36.20;17.80;;;;;;;-0.38;100.00;97677.31;4950137;28;20134;-44
2022/12/18 08:01:27;;;;;;;49.72;21.67;;;;;;;-0.01;100.00;97672.66;4952873;28;20247;-44
2022/12/18 08:03:58;;;;;;;34.58;17.85;;;;;;;-0.91;100.00;97674.59;4962816;28;20077;-42
2022/12/18 08:06:26;;;;;;;32.75;16.38;;;;;;;-0.97;100.00;97673.03;4969109;28;20058;-41
2022/12/18 08:08:56;;;;;;;43.38;19.75;;;;;;;-0.74;100.00;97677.56;4960945;28;20083;-41
2022/12/18 08:11:26;;;;;;;42.05;19.77;;;;;;;-0.59;100.00;97676.22;4962376;28;20075;-42
2022/12/18 08:13:54;;;;;;;44.10;19.63;;;;;;;-0.36;100.00;97676.38;4964454;28;20130;-42
2022/12/18 08:16:23;;;;;;;47.55;20.65;;;;;;;-0.05;100.00;97672.81;4963240;28;20542;-43
2022/12/18 08:18:52;;;;;;;36.25;17.55;;;;;;;-0.38;100.00;97691.16;4968837;28;20854;-43
2022/12/18 08:21:26;;;;;;;44.53;20.75;;;;;;;0.20;100.00;97691.84;4972361;28;20081;-40
2022/12/18 08:23:55;;;;;;;46.83;21.02;;;;;;;0.58;100.00;97687.13;4971059;28;20097;-42
2022/12/18 08:26:24;;;;;;;46.85;21.98;;;;;;;-0.01;100.00;97697.75;4965805;28;20109;-41
2022/12/18 08:28:54;;;;;;;45.88;21.13;;;;;;;-0.08;100.00;97706.63;4967179;28;20086;-43
2022/12/18 08:31:22;;;;;;;40.87;20.17;;;;;;;-0.01;100.00;97695.16;4967761;28;20086;-46
2022/12/18 08:33:53;;;;;;;42.42;19.30;;;;;;;-0.28;100.00;97707.25;4968901;28;20573;-40
2022/12/18 08:36:24;;;;;;;43.38;20.63;;;;;;;0.44;100.00;97691.94;4969573;28;20086;-40
2022/12/18 08:38:53;;;;;;;36.67;17.58;;;;;;;-0.69;100.00;97709.34;4971180;28;20093;-44
2022/12/18 08:41:22;;;;;;;43.80;19.77;;;;;;;-0.66;100.00;97722.19;4969207;28;20062;-42
2022/12/18 08:46:38;;;;;;;48.10;23.88;;;;;;;-0.86;100.00;97714.16;4964304;28;20074;-42
2022/12/18 08:49:07;;;;;;;44.88;21.40;;;;;;;-0.62;100.00;97716.06;4964415;28;20091;-46
2022/12/18 08:51:37;;;;;;;44.80;21.70;;;;;;;-0.44;100.00;97713.81;4967940;28;20079;-44
2022/12/18 08:54:06;;;;;;;52.10;23.92;;;;;;;-0.23;100.00;97717.50;4969026;28;20105;-46
2022/12/18 08:56:34;;;;;;;48.70;25.25;;;;;;;-0.33;100.00;97728.13;4969166;28;20089;-46
2022/12/18 08:59:04;;;;;;;46.03;21.75;;;;;;;0.42;100.00;97717.13;4971390;28;20097;-41
2022/12/18 09:01:32;;;;;;;55.63;29.73;;;;;;;0.25;100.00;97722.00;4967387;28;20554;-46
2022/12/18 09:04:01;;;;;;;46.50;22.08;;;;;;;0.40;100.00;97727.53;4966477;28;20090;-42
2022/12/18 09:06:30;;;;;;;45.90;21.70;;;;;;;0.65;100.00;97722.38;4968972;28;20509;-47
2022/12/18 09:08:59;;;;;;;40.45;18.58;;;;;;;0.35;100.00;97731.19;4966671;28;20085;-48
2022/12/18 09:11:29;;;;;;;39.80;19.95;;;;;;;0.60;100.00;97719.06;4964537;28;20074;-45
2022/12/18 09:13:59;;;;;;;40.15;20.35;;;;;;;0.57;100.00;97723.53;4964603;28;20086;-40
2022/12/18 09:16:29;;;;;;;43.95;20.90;;;;;;;0.84;100.00;97717.38;4959697;28;20490;-42
2022/12/18 09:19:01;;;;;;;36.08;17.73;;;;;;;0.21;100.00;97723.88;4964347;28;20101;-43
2022/12/18 09:21:30;;;;;;;39.63;19.50;;;;;;;-0.10;100.00;97724.00;4963478;28;20082;-41
2022/12/18 09:24:06;;;;;;;20.13;12.05;;;;;;;-0.22;100.00;97732.13;4965505;28;20071;-43
2022/12/18 09:26:36;;;;;;;34.05;17.85;;;;;;;0.59;100.00;97716.53;4964776;28;20468;-43
2022/12/18 09:29:06;;;;;;;35.20;18.05;;;;;;;-0.11;100.00;97715.34;4969401;28;20483;-41
2022/12/18 09:31:37;;;;;;;31.27;16.00;;;;;;;0.11;100.00;97709.50;4964529;28;20039;-45
2022/12/18 09:34:06;;;;;;;38.53;15.82;;;;;;;-0.15;100.00;97724.13;4965573;28;20078;-43
2022/12/18 09:36:34;;;;;;;44.80;21.30;;;;;;;-0.12;100.00;97729.22;4967931;28;20090;-42
2022/12/18 09:39:02;;;;;;;45.45;23.40;;;;;;;0.23;100.00;97719.44;4967684;28;20178;-45
2022/12/18 09:41:44;;;;;;;42.08;20.67;;;;;;;0.54;100.00;97713.25;4963483;28;20086;-45
2022/12/18 09:44:18;;;;;;;42.20;20.58;;;;;;;0.12;100.00;97713.78;4966040;28;20085;-41
2022/12/18 09:46:53;;;;;;;40.47;19.85;;;;;;;0.60;100.00;97710.44;4965735;28;20090;-43
2022/12/18 09:49:24;;;;;;;43.50;21.15;;;;;;;0.31;100.00;97708.81;4966920;28;20086;-40
2022/12/18 09:51:55;;;;;;;42.30;21.35;;;;;;;0.14;100.00;97712.00;4967406;28;20098;-40
2022/12/18 09:54:27;;;;;;;38.05;18.50;;;;;;;0.33;100.00;97696.66;4968167;28;20089;-41
2022/12/18 09:56:57;;;;;;;41.85;21.13;;;;;;;0.65;100.00;97699.03;4963999;28;20086;-43
2022/12/18 09:59:28;;;;;;;42.40;20.02;;;;;;;0.55;100.00;97695.03;4959848;28;20090;-41
2022/12/18 10:01:57;;;;;;;35.97;17.63;;;;;;;0.45;100.00;97688.47;4963524;28;20074;-46
2022/12/18 10:04:29;;;;;;;31.20;16.65;;;;;;;-0.19;100.00;97693.16;4968014;28;20097;-42
2022/12/18 10:07:03;;;;;;;29.05;13.25;;;;;;;-0.12;100.00;97685.13;4964391;28;20092;-44
2022/12/18 10:09:40;;;;;;;42.33;21.48;;;;;;;0.02;100.00;97678.66;4967964;28;20082;-44
2022/12/18 10:12:15;;;;;;;31.50;16.73;;;;;;;0.04;100.00;97682.06;4966670;28;20463;-41
2022/12/18 10:14:50;;;;;;;27.40;13.45;;;;;;;-0.04;100.00;97690.06;4963540;28;20090;-46
2022/12/18 10:17:24;;;;;;;36.80;20.58;;;;;;;-0.02;100.00;97676.16;4965298;28;20816;-42
2022/12/18 10:19:57;;;;;;;16.10;10.02;;;;;;;-0.07;100.00;97672.88;4960928;28;20083;-44
2022/12/18 10:22:41;;;;;;;33.20;17.63;;;;;;;-0.10;100.00;97674.72;4966566;28;20459;-43
2022/12/18 10:25:20;;;;;;;39.15;19.67;;;;;;;-0.16;100.00;97670.56;4962254;28;20086;-44
2022/12/18 10:27:52;;;;;;;31.50;16.77;;;;;;;0.45;100.00;97662.53;4966777;28;20086;-48
2022/12/18 10:30:23;;;;;;;37.00;18.35;;;;;;;0.73;100.00;97665.00;4962119;28;20086;-40
2022/12/18 10:32:51;;;;;;;34.75;17.27;;;;;;;0.58;100.00;97655.97;4965479;28;20081;-45
2022/12/18 10:35:21;;;;;;;39.03;18.95;;;;;;;1.02;100.00;97658.72;4965526;28;20089;-43
2022/12/18 10:38:06;;;;;;;;;;;;;;;0.46;100.00;97654.66;4967337;28;20089;-41
2022/12/18 10:40:49;;;;;;;35.13;16.35;;;;;;;0.23;100.00;97652.84;4962719;28;19962;-44
2022/12/18 10:43:24;;;;;;;32.92;18.08;;;;;;;0.15;100.00;97656.63;4967541;28;20458;-45
2022/12/18 10:46:18;;;;;;;35.88;19.33;;;;;;;0.44;100.00;97658.22;4961229;28;20594;-44
2022/12/18 10:48:52;;;;;;;35.50;17.50;;;;;;;0.92;100.00;97660.81;4965828;28;20083;-43
2022/12/18 10:51:23;;;;;;;32.78;16.83;;;;;;;0.68;100.00;97659.09;4961619;28;20078;-45
2022/12/18 10:53:58;;;;;;;36.17;19.48;;;;;;;0.88;100.00;97659.22;4967367;28;20082;-41
2022/12/18 10:56:29;;;;;;;34.42;18.83;;;;;;;0.73;100.00;97656.38;4966837;28;20078;-44
2022/12/18 10:59:01;;;;;;;33.88;16.42;;;;;;;1.26;100.00;97662.16;4965952;28;20085;-47
2022/12/18 11:01:47;;;;;;;35.85;19.05;;;;;;;0.92;100.00;97659.97;4960754;28;20070;-42
2022/12/18 11:04:19;;;;;;;34.38;18.20;;;;;;;1.56;100.00;97654.13;4964213;28;20099;-43
2022/12/18 11:06:56;;;;;;;35.40;18.15;;;;;;;1.92;100.00;97653.56;4963774;28;20086;-42
2022/12/18 11:09:25;;;;;;;34.88;19.30;;;;;;;2.41;100.00;97651.50;4961900;28;20093;-46
2022/12/18 11:11:55;;;;;;;40.67;21.73;;;;;;;1.89;100.00;97657.13;4964281;28;20094;-47
2022/12/18 11:14:26;;;;;;;37.38;18.52;;;;;;;2.03;100.00;97654.81;4965053;28;20508;-40
2022/12/18 11:16:55;;;;;;;37.00;19.40;;;;;;;2.10;100.00;97658.03;4962480;28;20093;-42
2022/12/18 11:19:44;;;;;;;37.85;19.15;;;;;;;2.41;100.00;97656.72;4961625;28;20078;-46
2022/12/18 11:22:21;;;;;;;35.28;18.35;;;;;;;2.73;100.00;97661.41;4963621;28;20093;-45
2022/12/18 11:24:54;;;;;;;39.97;19.40;;;;;;;2.84;100.00;97656.56;4962340;28;20094;-44
2022/12/18 11:27:48;;;;;;;41.72;22.13;;;;;;;2.48;100.00;97660.75;4958789;28;20082;-47
2022/12/18 11:30:25;;;;;;;26.60;14.25;;;;;;;1.38;100.00;97658.28;4964031;28;20113;-45
2022/12/18 11:32:55;;;;;;;32.67;16.90;;;;;;;1.81;100.00;97651.38;4967616;28;20086;-41
2022/12/18 11:35:31;;;;;;;29.15;15.68;;;;;;;1.82;100.00;97653.06;4962714;28;20083;-41